Time,TemperatureF,DewpointF,PressureIn,WindDirection,WindDirectionDegrees,WindSpeedMPH,WindSpeedGustMPH,Humidity,HourlyPrecipIn,Conditions,Clouds,dailyrainin,SolarRadiationWatts/m^2,SoftwareType,DateUTC
2013-04-20 00:00:00,56.9,45.7,29.73,SSW,211,21.0,21.0,66,0.00,,,0.02,0,Wunderground v.1.15,2013-04-20 04:00:00,
2013-04-20 00:05:00,56.8,45.6,29.73,South,181,21.0,23.0,66,0.12,,,0.03,0,Wunderground v.1.15,2013-04-20 04:05:00,
2013-04-20 00:10:00,56.5,45.3,29.72,SSW,213,21.0,21.0,66,0.17,,,0.04,0,Wunderground v.1.15,2013-04-20 04:10:00,
2013-04-20 00:15:00,56.3,45.1,29.72,South,190,20.0,21.0,66,0.07,,,0.04,0,Wunderground v.1.15,2013-04-20 04:15:00,
2013-04-20 00:25:00,56.5,45.3,29.72,WSW,244,17.0,28.0,66,0.00,,,0.04,0,Wunderground v.1.15,2013-04-20 04:25:00,
2013-04-20 00:35:00,56.3,45.1,29.72,SW,227,18.0,28.0,66,0.29,,,0.07,0,Wunderground v.1.15,2013-04-20 04:35:00,
2013-04-20 00:45:00,56.6,45.4,29.71,SW,229,18.0,19.0,66,0.19,,,0.13,0,Wunderground v.1.15,2013-04-20 04:45:00,
2013-04-20 00:55:00,56.9,45.7,29.71,SSW,206,18.0,18.0,66,0.07,,,0.14,0,Wunderground v.1.15,2013-04-20 04:55:00,
2013-04-20 01:05:00,57.0,45.7,29.71,SW,224,17.0,19.0,66,0.00,,,0.14,0,Wunderground v.1.15,2013-04-20 05:05:00,
2013-04-20 01:10:00,56.7,45.5,29.71,South,169,18.0,18.0,66,0.00,,,0.14,0,Wunderground v.1.15,2013-04-20 05:10:00,
2013-04-20 01:15:00,56.2,45.0,29.69,SSW,201,19.0,19.0,66,0.00,,,0.14,0,Wunderground v.1.15,2013-04-20 05:15:00,
2013-04-20 01:25:00,55.8,44.6,29.69,WSW,243,19.0,19.0,66,0.00,,,0.14,0,Wunderground v.1.15,2013-04-20 05:25:00,
2013-04-20 01:30:00,55.9,44.7,29.69,SSW,201,20.0,20.0,66,0.00,,,0.14,0,Wunderground v.1.15,2013-04-20 05:30:00,
2013-04-20 01:40:00,55.9,44.7,29.68,SW,236,16.0,16.0,66,0.00,,,0.14,0,Wunderground v.1.15,2013-04-20 05:40:00,
2013-04-20 01:45:00,55.6,44.4,29.68,SW,222,16.0,20.0,66,0.00,,,0.14,0,Wunderground v.1.15,2013-04-20 05:45:00,
2013-04-20 01:55:00,55.4,44.2,29.68,SW,235,16.0,20.0,66,0.00,,,0.14,0,Wunderground v.1.15,2013-04-20 05:55:00,
2013-04-20 02:05:00,55.1,43.9,29.67,SSW,209,17.0,18.0,66,0.00,,,0.14,0,Wunderground v.1.15,2013-04-20 06:05:00,
2013-04-20 02:15:00,55.0,43.8,29.66,South,180,16.0,16.0,66,0.00,,,0.14,0,Wunderground v.1.15,2013-04-20 06:15:00,
2013-04-20 02:25:00,54.8,43.7,29.66,SW,221,15.0,17.0,66,0.00,,,0.14,0,Wunderground v.1.15,2013-04-20 06:25:00,
2013-04-20 02:35:00,54.3,43.2,29.66,SW,225,14.0,15.0,66,0.00,,,0.14,0,Wunderground v.1.15,2013-04-20 06:35:00,
2013-04-20 02:45:00,53.9,43.2,29.67,WNW,282,14.0,14.0,67,0.00,,,0.14,0,Wunderground v.1.15,2013-04-20 06:45:00,
2013-04-20 02:55:00,53.7,42.6,29.68,WSW,246,14.0,22.0,66,0.00,,,0.14,0,Wunderground v.1.15,2013-04-20 06:55:00,
2013-04-20 03:00:00,53.7,42.6,29.68,WSW,237,14.0,14.0,66,0.00,,,0.14,0,Wunderground v.1.15,2013-04-20 07:00:00,
2013-04-20 03:10:00,53.5,42.4,29.68,SW,221,13.0,13.0,66,0.00,,,0.14,0,Wunderground v.1.15,2013-04-20 07:10:00,
2013-04-20 03:20:00,53.5,42.8,29.67,WSW,238,11.0,12.0,67,0.00,,,0.14,0,Wunderground v.1.15,2013-04-20 07:20:00,
2013-04-20 03:30:00,52.9,42.2,29.67,SW,215,11.0,11.0,67,0.00,,,0.14,0,Wunderground v.1.15,2013-04-20 07:30:00,
2013-04-20 03:40:00,52.2,41.6,29.68,SW,234,9.0,9.0,67,0.00,,,0.14,0,Wunderground v.1.15,2013-04-20 07:40:00,
2013-04-20 03:45:00,52.1,41.5,29.68,WSW,240,8.0,9.0,67,0.00,,,0.14,0,Wunderground v.1.15,2013-04-20 07:45:00,
2013-04-20 03:55:00,51.8,41.2,29.68,SW,222,8.0,11.0,67,0.00,,,0.14,0,Wunderground v.1.15,2013-04-20 07:55:00,
2013-04-20 04:05:00,51.3,40.7,29.68,WSW,244,9.0,9.0,67,0.00,,,0.14,0,Wunderground v.1.15,2013-04-20 08:05:00,
2013-04-20 04:10:00,51.2,40.6,29.69,WSW,243,9.0,12.0,67,0.00,,,0.14,0,Wunderground v.1.15,2013-04-20 08:10:00,
2013-04-20 04:15:00,51.3,40.7,29.69,WNW,291,9.0,12.0,67,0.00,,,0.14,0,Wunderground v.1.15,2013-04-20 08:15:00,
2013-04-20 04:25:00,51.9,41.3,29.69,WSW,258,6.0,7.0,67,0.00,,,0.14,0,Wunderground v.1.15,2013-04-20 08:25:00,
2013-04-20 04:35:00,52.4,41.8,29.69,West,269,4.0,5.0,67,0.00,,,0.14,0,Wunderground v.1.15,2013-04-20 08:35:00,
2013-04-20 04:45:00,52.6,41.9,29.68,West,281,3.0,3.0,67,0.00,,,0.14,0,Wunderground v.1.15,2013-04-20 08:45:00,
2013-04-20 04:55:00,52.5,41.9,29.70,West,277,4.0,7.0,67,0.00,,,0.15,0,Wunderground v.1.15,2013-04-20 08:55:00,
2013-04-20 05:05:00,52.1,41.5,29.70,West,281,6.0,9.0,67,0.04,,,0.16,0,Wunderground v.1.15,2013-04-20 09:05:00,
2013-04-20 05:15:00,51.7,41.1,29.71,West,277,7.0,9.0,67,0.04,,,0.17,0,Wunderground v.1.15,2013-04-20 09:15:00,
2013-04-20 05:25:00,51.4,40.8,29.72,West,273,7.0,12.0,67,0.08,,,0.18,0,Wunderground v.1.15,2013-04-20 09:25:00,
2013-04-20 05:30:00,51.2,40.6,29.73,WNW,298,8.0,11.0,67,0.07,,,0.18,0,Wunderground v.1.15,2013-04-20 09:30:00,
2013-04-20 05:40:00,51.0,40.4,29.73,WNW,294,7.0,7.0,67,0.06,,,0.19,0,Wunderground v.1.15,2013-04-20 09:40:00,
2013-04-20 05:50:00,50.6,40.0,29.74,West,259,9.0,9.0,67,0.00,,,0.19,0,Wunderground v.1.15,2013-04-20 09:50:00,
2013-04-20 06:00:00,50.4,40.2,29.76,WNW,286,8.0,8.0,68,0.00,,,0.20,0,Wunderground v.1.15,2013-04-20 10:00:00,
2013-04-20 06:10:00,50.5,40.3,29.76,NW,306,6.0,6.0,68,0.15,,,0.22,0,Wunderground v.1.15,2013-04-20 10:10:00,
2013-04-20 06:20:00,50.4,39.9,29.77,WSW,257,8.0,8.0,67,0.17,,,0.25,0,Wunderground v.1.15,2013-04-20 10:20:00,
2013-04-20 06:30:00,50.2,39.7,29.78,WNW,288,8.0,8.0,67,0.10,,,0.27,0,Wunderground v.1.15,2013-04-20 10:30:00,
2013-04-20 06:40:00,50.2,39.7,29.79,WNW,286,7.0,7.0,67,0.12,,,0.29,0,Wunderground v.1.15,2013-04-20 10:40:00,
2013-04-20 06:50:00,50.3,39.8,29.79,West,259,8.0,9.0,67,0.14,,,0.31,9,Wunderground v.1.15,2013-04-20 10:50:00,
2013-04-20 06:55:00,50.2,39.7,29.79,West,272,8.0,9.0,67,0.12,,,0.32,9,Wunderground v.1.15,2013-04-20 10:55:00,
2013-04-20 07:05:00,50.3,40.1,29.79,NW,304,8.0,13.0,68,0.08,,,0.33,25,Wunderground v.1.15,2013-04-20 11:05:00,
2013-04-20 07:10:00,50.4,39.9,29.79,WNW,300,8.0,9.0,67,0.08,,,0.34,35,Wunderground v.1.15,2013-04-20 11:10:00,
2013-04-20 07:15:00,50.4,40.2,29.80,WNW,286,7.0,9.0,68,0.06,,,0.34,9,Wunderground v.1.15,2013-04-20 11:15:00,
2013-04-20 07:25:00,50.3,39.8,29.82,NW,326,8.0,11.0,67,0.04,,,0.35,7,Wunderground v.1.15,2013-04-20 11:25:00,
2013-04-20 07:35:00,49.7,39.6,29.82,NW,309,9.0,10.0,68,0.07,,,0.36,11,Wunderground v.1.15,2013-04-20 11:35:00,
2013-04-20 07:40:00,49.5,39.4,29.82,West,281,8.0,9.0,68,0.04,,,0.36,18,Wunderground v.1.15,2013-04-20 11:40:00,
2013-04-20 07:50:00,48.7,38.6,29.83,NNW,344,9.0,11.0,68,0.00,,,0.37,23,Wunderground v.1.15,2013-04-20 11:50:00,
2013-04-20 08:00:00,48.3,38.2,29.83,NNW,336,8.0,10.0,68,0.00,,,0.37,25,Wunderground v.1.15,2013-04-20 12:00:00,
2013-04-20 08:05:00,47.7,37.7,29.84,NW,326,11.0,11.0,68,0.05,,,0.38,25,Wunderground v.1.15,2013-04-20 12:05:00,
2013-04-20 08:15:00,46.9,37.3,29.84,North,351,10.0,14.0,69,0.04,,,0.38,26,Wunderground v.1.15,2013-04-20 12:15:00,
2013-04-20 08:25:00,46.6,37.0,29.83,NNE,15,9.0,10.0,69,0.00,,,0.38,44,Wunderground v.1.15,2013-04-20 12:25:00,
2013-04-20 08:35:00,46.5,36.9,29.85,NNW,342,9.0,10.0,69,0.00,,,0.38,60,Wunderground v.1.15,2013-04-20 12:35:00,
2013-04-20 08:45:00,46.7,37.1,29.84,NNW,342,7.0,9.0,69,0.00,,,0.38,95,Wunderground v.1.15,2013-04-20 12:45:00,
2013-04-20 08:55:00,46.9,37.3,29.84,NW,326,6.0,10.0,69,0.00,,,0.38,146,Wunderground v.1.15,2013-04-20 12:55:00,
2013-04-20 09:05:00,47.3,37.6,29.85,North,355,6.0,7.0,69,0.00,,,0.38,185,Wunderground v.1.15,2013-04-20 13:05:00,
2013-04-20 09:15:00,47.8,37.7,29.85,North,359,6.0,8.0,68,0.00,,,0.38,246,Wunderground v.1.15,2013-04-20 13:15:00,
2013-04-20 09:25:00,48.2,38.1,29.87,NW,310,6.0,6.0,68,0.00,,,0.38,160,Wunderground v.1.15,2013-04-20 13:25:00,
2013-04-20 09:35:00,48.3,38.2,29.88,NNW,336,5.0,6.0,68,0.00,,,0.38,186,Wunderground v.1.15,2013-04-20 13:35:00,
2013-04-20 09:45:00,48.3,38.6,29.89,NW,310,5.0,6.0,69,0.00,,,0.38,176,Wunderground v.1.15,2013-04-20 13:45:00,
2013-04-20 09:55:00,48.5,38.8,29.91,West,273,5.0,6.0,69,0.00,,,0.38,278,Wunderground v.1.15,2013-04-20 13:55:00,
2013-04-20 10:05:00,48.9,39.2,29.91,WNW,292,6.0,7.0,69,0.00,,,0.38,343,Wunderground v.1.15,2013-04-20 14:05:00,
2013-04-20 10:15:00,49.9,40.5,29.91,WNW,283,5.0,6.0,70,0.00,,,0.38,390,Wunderground v.1.15,2013-04-20 14:15:00,
2013-04-20 10:20:00,50.3,40.9,29.92,NW,313,5.0,5.0,70,0.00,,,0.38,497,Wunderground v.1.15,2013-04-20 14:20:00,
2013-04-20 10:30:00,52.0,43.6,29.92,NW,311,6.0,7.0,73,0.00,,,0.38,431,Wunderground v.1.15,2013-04-20 14:30:00,
2013-04-20 10:35:00,52.2,44.9,29.92,West,273,7.0,9.0,76,0.00,,,0.38,436,Wunderground v.1.15,2013-04-20 14:35:00,
2013-04-20 10:45:00,52.0,45.7,29.92,NW,307,8.0,10.0,79,0.00,,,0.38,450,Wunderground v.1.15,2013-04-20 14:45:00,
2013-04-20 10:55:00,52.9,46.6,29.92,North,351,7.0,8.0,79,0.00,,,0.38,485,Wunderground v.1.15,2013-04-20 14:55:00,
2013-04-20 11:05:00,53.5,46.5,29.93,NW,317,7.0,8.0,77,0.00,,,0.38,360,Wunderground v.1.15,2013-04-20 15:05:00,
2013-04-20 11:15:00,53.6,46.2,29.92,NW,304,7.0,7.0,76,0.00,,,0.38,427,Wunderground v.1.15,2013-04-20 15:15:00,
2013-04-20 11:25:00,53.8,46.1,29.93,WNW,290,6.0,9.0,75,0.00,,,0.38,443,Wunderground v.1.15,2013-04-20 15:25:00,
2013-04-20 11:35:00,53.9,46.5,29.93,WSW,247,6.0,7.0,76,0.00,,,0.38,397,Wunderground v.1.15,2013-04-20 15:35:00,
2013-04-20 11:45:00,52.5,45.8,29.93,WSW,242,7.0,7.0,78,0.00,,,0.38,267,Wunderground v.1.15,2013-04-20 15:45:00,
2013-04-20 11:55:00,52.3,45.6,29.93,SW,232,7.0,8.0,78,0.00,,,0.38,406,Wunderground v.1.15,2013-04-20 15:55:00,
2013-04-20 12:05:00,52.4,45.7,29.93,SW,230,8.0,12.0,78,0.00,,,0.38,490,Wunderground v.1.15,2013-04-20 16:05:00,
2013-04-20 12:15:00,52.4,46.1,29.92,SW,224,8.0,10.0,79,0.00,,,0.38,698,Wunderground v.1.15,2013-04-20 16:15:00,
2013-04-20 12:25:00,52.3,45.6,29.92,SSW,196,8.0,10.0,78,0.00,,,0.38,466,Wunderground v.1.15,2013-04-20 16:25:00,
2013-04-20 12:30:00,52.0,45.4,29.92,SW,223,8.0,12.0,78,0.00,,,0.38,605,Wunderground v.1.15,2013-04-20 16:30:00,
2013-04-20 12:40:00,52.1,45.4,29.92,SW,230,7.0,7.0,78,0.00,,,0.38,540,Wunderground v.1.15,2013-04-20 16:40:00,
2013-04-20 12:45:00,52.1,45.4,29.92,SW,233,7.0,8.0,78,0.00,,,0.38,464,Wunderground v.1.15,2013-04-20 16:45:00,
2013-04-20 12:55:00,51.5,44.9,29.92,SW,232,8.0,8.0,78,0.00,,,0.38,605,Wunderground v.1.15,2013-04-20 16:55:00,
2013-04-20 13:05:00,52.1,45.4,29.92,WSW,237,6.0,8.0,78,0.00,,,0.38,564,Wunderground v.1.15,2013-04-20 17:05:00,
2013-04-20 13:15:00,51.3,45.0,29.92,SW,224,6.0,7.0,79,0.00,,,0.38,613,Wunderground v.1.15,2013-04-20 17:15:00,
2013-04-20 13:20:00,51.8,45.5,29.92,SSW,209,5.0,5.0,79,0.00,,,0.38,647,Wunderground v.1.15,2013-04-20 17:20:00,
2013-04-20 13:25:00,52.8,46.1,29.92,SSW,213,4.0,5.0,78,0.00,,,0.38,710,Wunderground v.1.15,2013-04-20 17:25:00,
2013-04-20 13:35:00,54.9,42.5,29.92,WNW,296,9.0,12.0,63,0.00,,,0.38,582,Wunderground v.1.15,2013-04-20 17:35:00,
2013-04-20 13:40:00,56.3,43.0,29.92,West,270,8.0,8.0,61,0.00,,,0.38,475,Wunderground v.1.15,2013-04-20 17:40:00,
2013-04-20 13:50:00,56.6,40.1,29.92,WNW,287,10.0,10.0,54,0.00,,,0.38,517,Wunderground v.1.15,2013-04-20 17:50:00,
2013-04-20 14:00:00,56.3,38.9,29.92,WNW,286,10.0,11.0,52,0.00,,,0.38,663,Wunderground v.1.15,2013-04-20 18:00:00,
2013-04-20 14:10:00,57.3,39.8,29.92,West,270,8.0,8.0,52,0.00,,,0.38,469,Wunderground v.1.15,2013-04-20 18:10:00,
2013-04-20 14:20:00,57.1,38.6,29.93,NW,326,10.0,10.0,50,0.00,,,0.38,608,Wunderground v.1.15,2013-04-20 18:20:00,
2013-04-20 14:30:00,57.3,39.3,29.93,NW,307,9.0,15.0,51,0.00,,,0.38,592,Wunderground v.1.15,2013-04-20 18:30:00,
2013-04-20 14:40:00,57.1,38.6,29.93,NW,320,11.0,15.0,50,0.00,,,0.38,831,Wunderground v.1.15,2013-04-20 18:40:00,
2013-04-20 14:50:00,58.0,37.9,29.94,West,277,11.0,12.0,47,0.00,,,0.38,930,Wunderground v.1.15,2013-04-20 18:50:00,
2013-04-20 15:00:00,57.5,37.4,29.94,WNW,302,12.0,12.0,47,0.00,,,0.38,617,Wunderground v.1.15,2013-04-20 19:00:00,
2013-04-20 15:10:00,56.3,37.4,29.94,NNW,336,12.0,12.0,49,0.00,,,0.38,330,Wunderground v.1.15,2013-04-20 19:10:00,
2013-04-20 15:20:00,56.0,36.6,29.95,NW,321,10.0,10.0,48,0.00,,,0.38,387,Wunderground v.1.15,2013-04-20 19:20:00,
2013-04-20 15:30:00,56.0,36.0,29.95,West,277,10.0,13.0,47,0.00,,,0.38,529,Wunderground v.1.15,2013-04-20 19:30:00,
2013-04-20 15:40:00,56.4,35.3,29.95,NW,315,11.0,11.0,45,0.00,,,0.38,396,Wunderground v.1.15,2013-04-20 19:40:00,
2013-04-20 15:45:00,56.1,35.0,29.96,WNW,288,11.0,13.0,45,0.00,,,0.38,290,Wunderground v.1.15,2013-04-20 19:45:00,
2013-04-20 15:50:00,55.6,35.1,29.96,NW,320,9.0,9.0,46,0.00,,,0.38,316,Wunderground v.1.15,2013-04-20 19:50:00,
2013-04-20 16:00:00,55.7,35.8,29.96,NW,314,9.0,9.0,47,0.00,,,0.38,380,Wunderground v.1.15,2013-04-20 20:00:00,
2013-04-20 16:10:00,55.8,36.4,29.97,NW,305,9.0,9.0,48,0.00,,,0.38,343,Wunderground v.1.15,2013-04-20 20:10:00,
2013-04-20 16:15:00,56.1,36.7,29.97,WNW,290,7.0,11.0,48,0.00,,,0.38,281,Wunderground v.1.15,2013-04-20 20:15:00,
2013-04-20 16:25:00,56.0,36.0,29.97,West,267,7.0,7.0,47,0.00,,,0.38,274,Wunderground v.1.15,2013-04-20 20:25:00,
2013-04-20 16:35:00,56.0,37.1,29.97,West,261,7.0,13.0,49,0.00,,,0.38,283,Wunderground v.1.15,2013-04-20 20:35:00,
2013-04-20 16:40:00,56.0,36.6,29.97,NW,326,8.0,8.0,48,0.00,,,0.38,250,Wunderground v.1.15,2013-04-20 20:40:00,
2013-04-20 16:50:00,55.9,37.5,29.98,WNW,297,8.0,8.0,50,0.00,,,0.38,234,Wunderground v.1.15,2013-04-20 20:50:00,
2013-04-20 17:00:00,56.3,37.4,29.99,WNW,282,7.0,12.0,49,0.00,,,0.38,352,Wunderground v.1.15,2013-04-20 21:00:00,
2013-04-20 17:10:00,57.3,37.8,29.99,WSW,250,6.0,8.0,48,0.00,,,0.38,308,Wunderground v.1.15,2013-04-20 21:10:00,
2013-04-20 17:20:00,56.5,41.0,30.00,WSW,252,9.0,11.0,56,0.00,,,0.38,241,Wunderground v.1.15,2013-04-20 21:20:00,
2013-04-20 17:30:00,53.1,42.8,30.00,SSW,210,9.0,11.0,68,0.00,,,0.38,281,Wunderground v.1.15,2013-04-20 21:30:00,
2013-04-20 17:40:00,52.5,43.0,30.00,SW,223,10.0,10.0,70,0.00,,,0.38,200,Wunderground v.1.15,2013-04-20 21:40:00,
2013-04-20 17:50:00,52.3,42.8,30.01,WSW,245,9.0,15.0,70,0.00,,,0.38,214,Wunderground v.1.15,2013-04-20 21:50:00,
2013-04-20 18:00:00,52.1,43.0,30.01,West,275,10.0,10.0,71,0.00,,,0.38,118,Wunderground v.1.15,2013-04-20 22:00:00,
2013-04-20 18:10:00,52.0,42.9,30.02,WSW,240,10.0,10.0,71,0.00,,,0.38,104,Wunderground v.1.15,2013-04-20 22:10:00,
2013-04-20 18:15:00,51.8,43.4,30.02,SW,214,11.0,11.0,73,0.00,,,0.38,104,Wunderground v.1.15,2013-04-20 22:15:00,
2013-04-20 18:25:00,51.2,43.2,30.02,WSW,250,9.0,10.0,74,0.00,,,0.38,97,Wunderground v.1.15,2013-04-20 22:25:00,
2013-04-20 18:35:00,51.0,43.0,30.02,SW,234,10.0,10.0,74,0.00,,,0.38,93,Wunderground v.1.15,2013-04-20 22:35:00,
2013-04-20 18:45:00,50.9,43.3,30.02,West,262,9.0,13.0,75,0.00,,,0.38,70,Wunderground v.1.15,2013-04-20 22:45:00,
2013-04-20 18:55:00,51.0,43.7,30.03,SW,219,9.0,11.0,76,0.00,,,0.38,56,Wunderground v.1.15,2013-04-20 22:55:00,
2013-04-20 19:05:00,51.3,44.0,30.03,West,260,7.0,8.0,76,0.00,,,0.38,47,Wunderground v.1.15,2013-04-20 23:05:00,
2013-04-20 19:10:00,51.3,44.0,30.04,West,267,8.0,13.0,76,0.00,,,0.38,37,Wunderground v.1.15,2013-04-20 23:10:00,
2013-04-20 19:15:00,51.2,43.9,30.03,WSW,250,8.0,13.0,76,0.00,,,0.38,28,Wunderground v.1.15,2013-04-20 23:15:00,
2013-04-20 19:25:00,51.0,43.7,30.04,WSW,250,7.0,12.0,76,0.00,,,0.38,16,Wunderground v.1.15,2013-04-20 23:25:00,
2013-04-20 19:30:00,51.0,44.0,30.05,WSW,238,7.0,7.0,77,0.00,,,0.38,16,Wunderground v.1.15,2013-04-20 23:30:00,
2013-04-20 19:40:00,50.9,43.9,30.05,SW,236,5.0,5.0,77,0.00,,,0.38,7,Wunderground v.1.15,2013-04-20 23:40:00,
2013-04-20 19:45:00,50.9,43.9,30.05,WSW,241,4.0,5.0,77,0.00,,,0.38,0,Wunderground v.1.15,2013-04-20 23:45:00,
2013-04-20 19:55:00,51.0,44.4,30.06,WSW,245,4.0,6.0,78,0.00,,,0.38,0,Wunderground v.1.15,2013-04-20 23:55:00,
2013-04-20 20:05:00,51.0,44.4,30.07,WSW,243,4.0,5.0,78,0.00,,,0.00,0,Wunderground v.1.15,2013-04-21 00:05:00,
2013-04-20 20:10:00,51.0,44.4,30.07,WSW,245,4.0,4.0,78,0.00,,,0.00,0,Wunderground v.1.15,2013-04-21 00:10:00,
2013-04-20 20:20:00,50.8,44.2,30.08,WSW,257,4.0,4.0,78,0.00,,,0.00,0,Wunderground v.1.15,2013-04-21 00:20:00,
2013-04-20 20:30:00,50.4,43.8,30.09,West,271,4.0,5.0,78,0.00,,,0.00,0,Wunderground v.1.15,2013-04-21 00:30:00,
2013-04-20 20:40:00,50.2,43.6,30.09,West,272,4.0,4.0,78,0.00,,,0.00,0,Wunderground v.1.15,2013-04-21 00:40:00,
2013-04-20 20:45:00,50.2,43.3,30.09,West,276,4.0,5.0,77,0.00,,,0.00,0,Wunderground v.1.15,2013-04-21 00:45:00,
2013-04-20 20:55:00,50.3,41.6,30.11,WNW,294,5.0,6.0,72,0.00,,,0.00,0,Wunderground v.1.15,2013-04-21 00:55:00,
2013-04-20 21:05:00,50.7,40.1,30.11,WNW,290,5.0,5.0,67,0.00,,,0.00,0,Wunderground v.1.15,2013-04-21 01:05:00,
2013-04-20 21:15:00,50.9,39.5,30.12,WNW,297,5.0,8.0,65,0.00,,,0.00,0,Wunderground v.1.15,2013-04-21 01:15:00,
2013-04-20 21:25:00,51.4,39.6,30.13,NNW,331,6.0,6.0,64,0.00,,,0.00,0,Wunderground v.1.15,2013-04-21 01:25:00,
2013-04-20 21:35:00,51.8,40.4,30.13,NW,307,5.0,6.0,65,0.00,,,0.00,0,Wunderground v.1.15,2013-04-21 01:35:00,
2013-04-20 21:45:00,52.0,40.2,30.14,WNW,300,5.0,6.0,64,0.00,,,0.00,0,Wunderground v.1.15,2013-04-21 01:45:00,
2013-04-20 21:50:00,52.1,39.9,30.14,NW,320,5.0,5.0,63,0.00,,,0.00,0,Wunderground v.1.15,2013-04-21 01:50:00,
2013-04-20 22:00:00,52.2,39.6,30.14,NNW,347,5.0,6.0,62,0.00,,,0.00,0,Wunderground v.1.15,2013-04-21 02:00:00,
2013-04-20 22:10:00,52.6,38.7,30.15,NW,326,6.0,6.0,59,0.00,,,0.00,0,Wunderground v.1.15,2013-04-21 02:10:00,
2013-04-20 22:15:00,52.6,38.2,30.15,NNW,344,6.0,6.0,58,0.00,,,0.00,0,Wunderground v.1.15,2013-04-21 02:15:00,
2013-04-20 22:25:00,52.7,37.0,30.16,NNW,340,9.0,16.0,55,0.00,,,0.00,0,Wunderground v.1.15,2013-04-21 02:25:00,
2013-04-20 22:35:00,52.5,38.1,30.16,North,353,8.0,10.0,58,0.00,,,0.00,0,Wunderground v.1.15,2013-04-21 02:35:00,
2013-04-20 22:45:00,52.1,36.9,30.17,NNW,331,8.0,9.0,56,0.00,,,0.00,0,Wunderground v.1.15,2013-04-21 02:45:00,
2013-04-20 22:55:00,51.8,37.0,30.17,NW,326,8.0,9.0,57,0.00,,,0.00,0,Wunderground v.1.15,2013-04-21 02:55:00,
2013-04-20 23:05:00,51.6,36.4,30.18,NW,319,6.0,9.0,56,0.00,,,0.00,0,Wunderground v.1.15,2013-04-21 03:05:00,
2013-04-20 23:15:00,51.4,37.1,30.19,NW,315,6.0,9.0,58,0.00,,,0.00,0,Wunderground v.1.15,2013-04-21 03:15:00,
2013-04-20 23:25:00,51.3,37.0,30.19,NW,307,9.0,11.0,58,0.00,,,0.00,0,Wunderground v.1.15,2013-04-21 03:25:00,
2013-04-20 23:35:00,51.2,36.9,30.20,North,357,10.0,10.0,58,0.00,,,0.00,0,Wunderground v.1.15,2013-04-21 03:35:00,
2013-04-20 23:40:00,51.1,37.3,30.20,NNW,348,9.0,9.0,59,0.00,,,0.00,0,Wunderground v.1.15,2013-04-21 03:40:00,
2013-04-20 23:50:00,50.6,36.4,30.22,NNW,347,8.0,8.0,58,0.00,,,0.00,0,Wunderground v.1.15,2013-04-21 03:50:00,